GFA962 OEDF-OJAI
Flight info
| Callsign | GFA962 |
|---|---|
| Flight time | N/A |
| Altitude | 38000 |
| Route | OEDF/34L N0452F380 DCT KFA H741 JBL L768 AAR V45 TRF R652 OBROD Q163 GENEX L53 ELOXI DCT OJAI/08L |
| Aircraft | A320/M-VGDW/C |
Departure
| Time | 2026-04-16 21:01 |
|---|---|
| Airport | King Fahd International Airport (OEDF) |
Arrival
| Time | N/A |
|---|---|
| Airport | Queen Alia International Airport (OJAI) |
| Time | Latitude | Longitude | Altitude | Speed | Heading |
|---|---|---|---|---|---|
| 2026-04-16 20:42 | 26.46633 | 49.79593 | 69 ft | 0 kts | 85° |
| 2026-04-16 20:47 | 26.46632 | 49.79579 | 59 ft | 2 kts | 85° |
| 2026-04-16 20:47 | 26.46631 | 49.79559 | 66 ft | 3 kts | 85° |
| 2026-04-16 20:48 | 26.46629 | 49.79540 | 61 ft | 3 kts | 93° |
| 2026-04-16 20:48 | 26.46633 | 49.79520 | 62 ft | 3 kts | 130° |
| 2026-04-16 20:48 | 26.46647 | 49.79507 | 61 ft | 3 kts | 167° |
| 2026-04-16 20:48 | 26.46654 | 49.79506 | 63 ft | 0 kts | 176° |
| 2026-04-16 20:50 | 26.46627 | 49.79501 | 63 ft | 12 kts | 191° |
| 2026-04-16 20:50 | 26.46491 | 49.79490 | 68 ft | 22 kts | 204° |
| 2026-04-16 20:50 | 26.46436 | 49.79339 | 60 ft | 22 kts | 253° |
| 2026-04-16 20:51 | 26.46356 | 49.79233 | 60 ft | 15 kts | 162° |
| 2026-04-16 20:51 | 26.46249 | 49.79270 | 60 ft | 17 kts | 164° |
| 2026-04-16 20:51 | 26.46130 | 49.79308 | 63 ft | 19 kts | 164° |
| 2026-04-16 20:51 | 26.45999 | 49.79345 | 63 ft | 20 kts | 168° |
| 2026-04-16 20:52 | 26.45860 | 49.79388 | 59 ft | 22 kts | 164° |
| 2026-04-16 20:52 | 26.45710 | 49.79438 | 63 ft | 23 kts | 163° |
| 2026-04-16 20:52 | 26.45610 | 49.79400 | 61 ft | 15 kts | 254° |
| 2026-04-16 20:52 | 26.45582 | 49.79282 | 63 ft | 17 kts | 255° |
| 2026-04-16 20:53 | 26.45574 | 49.79248 | 63 ft | 0 kts | 255° |
| 2026-04-16 20:59 | 26.45569 | 49.79226 | 63 ft | 12 kts | 256° |
| 2026-04-16 21:00 | 26.45667 | 49.79122 | 62 ft | 31 kts | 346° |
| 2026-04-16 21:00 | 26.46035 | 49.79005 | 64 ft | 89 kts | 345° |
| 2026-04-16 21:00 | 26.46832 | 49.78761 | 59 ft | 146 kts | 344° |
| 2026-04-16 21:00 | 26.47935 | 49.78429 | 255 ft | 174 kts | 345° |
| 2026-04-16 21:01 | 26.49098 | 49.78086 | 1034 ft | 172 kts | 344° |
| 2026-04-16 21:01 | 26.50244 | 49.77729 | 1831 ft | 173 kts | 345° |
| 2026-04-16 21:01 | 26.51473 | 49.77358 | 2189 ft | 194 kts | 345° |
| 2026-04-16 21:01 | 26.52847 | 49.76954 | 2555 ft | 214 kts | 345° |
| 2026-04-16 21:02 | 26.54374 | 49.76514 | 2952 ft | 239 kts | 345° |
| 2026-04-16 21:02 | 26.56028 | 49.75993 | 3603 ft | 252 kts | 336° |
| 2026-04-16 21:02 | 26.57462 | 49.74850 | 4458 ft | 257 kts | 311° |
| 2026-04-16 21:03 | 26.59648 | 49.71636 | 6272 ft | 265 kts | 307° |
| 2026-04-16 21:03 | 26.60752 | 49.69972 | 7114 ft | 268 kts | 306° |
| 2026-04-16 21:03 | 26.61868 | 49.68284 | 7968 ft | 272 kts | 306° |
| 2026-04-16 21:03 | 26.62998 | 49.66574 | 8852 ft | 275 kts | 305° |